createdAt,value
2023-02-16T00:11:33.945Z,-1.66
2023-02-16T00:26:35.030Z,-1.66
2023-02-16T00:41:35.301Z,-1.67
2023-02-16T00:56:35.787Z,-1.62
2023-02-16T01:11:36.412Z,-1.69
2023-02-16T01:26:37.011Z,-1.66
2023-02-16T01:41:37.637Z,-1.73
2023-02-16T01:56:38.245Z,-1.73
2023-02-16T02:11:40.143Z,-1.84
2023-02-16T02:26:40.752Z,-1.94
2023-02-16T02:41:41.425Z,-2.16
2023-02-16T02:56:41.976Z,-2.34
2023-02-16T03:11:45.201Z,-2.21
2023-02-16T03:26:47.716Z,-2.37
2023-02-16T03:41:48.250Z,-2.23
2023-02-16T03:56:48.529Z,-2.35
2023-02-16T04:11:49.077Z,-2.08
2023-02-16T04:26:49.901Z,-2.15
2023-02-16T04:41:50.743Z,-2.18
2023-02-16T04:56:51.389Z,-2.32
2023-02-16T05:11:51.572Z,-2.09
2023-02-16T05:26:51.907Z,-2.12
2023-02-16T05:41:52.802Z,-2.18
2023-02-16T05:56:53.010Z,-2.23
2023-02-16T06:11:53.629Z,-2.50
2023-02-16T06:26:54.671Z,-2.45
2023-02-16T06:41:54.831Z,-2.49
2023-02-16T06:56:55.861Z,-1.97
2023-02-16T07:11:56.436Z,-1.41
2023-02-16T07:26:57.112Z,-0.80
2023-02-16T07:41:58.530Z,-0.36
2023-02-16T07:56:59.178Z,0.26
2023-02-16T08:11:59.757Z,0.79
2023-02-16T08:27:00.360Z,1.65
2023-02-16T08:42:01.377Z,3.00
2023-02-16T08:57:01.594Z,4.15
2023-02-16T09:12:02.147Z,5.07
2023-02-16T09:27:04.073Z,6.55
2023-02-16T09:42:05.071Z,7.71
2023-02-16T09:57:05.330Z,8.55
2023-02-16T10:12:05.876Z,8.45
2023-02-16T10:27:06.481Z,9.05
2023-02-16T10:42:07.075Z,9.61
2023-02-16T10:57:08.163Z,9.87
2023-02-16T11:12:08.283Z,10.40
2023-02-16T11:27:09.332Z,10.63
2023-02-16T11:42:09.889Z,11.32
2023-02-16T11:57:11.785Z,11.78
2023-02-16T12:12:12.361Z,12.32
2023-02-16T12:27:12.962Z,12.86
2023-02-16T12:42:13.139Z,12.45
2023-02-16T12:57:13.736Z,12.74
2023-02-16T13:12:14.327Z,12.97
2023-02-16T13:27:14.943Z,13.17
2023-02-16T13:42:15.949Z,13.00
2023-02-16T13:57:16.544Z,12.42
2023-02-16T14:12:17.131Z,12.17
2023-02-16T14:27:17.810Z,12.04
2023-02-16T14:42:17.946Z,11.65
2023-02-16T14:57:18.938Z,11.36
2023-02-16T15:12:20.128Z,11.27
2023-02-16T15:27:20.865Z,11.09
2023-02-16T15:42:22.403Z,10.94
2023-02-16T15:57:22.518Z,10.63
2023-02-16T16:12:24.161Z,10.41
2023-02-16T16:27:24.724Z,10.08
2023-02-16T16:42:25.352Z,9.75
2023-02-16T16:57:25.937Z,9.56
2023-02-16T17:12:26.949Z,9.08
2023-02-16T17:27:27.555Z,8.81
2023-02-16T17:42:28.293Z,8.45
2023-02-16T17:57:29.365Z,8.36
2023-02-16T18:12:31.492Z,8.16
2023-02-16T18:27:32.246Z,7.95
2023-02-16T18:42:32.462Z,8.00
2023-02-16T18:57:33.123Z,8.23
2023-02-16T19:12:33.676Z,8.41
2023-02-16T19:27:34.663Z,8.61
2023-02-16T19:42:35.287Z,8.63
2023-02-16T19:57:35.463Z,8.70
2023-02-16T20:12:36.107Z,8.68
2023-02-16T20:27:36.695Z,8.47
2023-02-16T20:42:37.286Z,8.28
2023-02-16T20:57:37.873Z,8.04
2023-02-16T21:12:38.932Z,8.05
2023-02-16T21:27:39.477Z,8.05
2023-02-16T21:42:40.092Z,8.04
2023-02-16T21:57:40.693Z,7.87
2023-02-16T22:12:41.307Z,7.80
2023-02-16T22:27:41.931Z,7.63
2023-02-16T22:42:42.562Z,7.60
2023-02-16T22:57:43.524Z,7.53
2023-02-16T23:12:44.349Z,7.43
2023-02-16T23:27:45.338Z,7.57
2023-02-16T23:42:45.510Z,7.61
2023-02-16T23:57:46.087Z,7.50
